Terminal Aerodrome Forecast
Issued by NWS

Home | Current Version | Previous Version | Text Only | Print | Product List | Glossary On
Versions: 1 2 3 4 5 6 7 8 9 10 11 12 13 14 15 16 17 18
000
FTUS43 KICT 271733
TAFHUT
TAF
KHUT 271733Z 2718/2818 29014G20KT P6SM BKN027
     FM271900 28015G22KT P6SM BKN035
     FM272100 28016G23KT P6SM SCT045
     FM280100 29009KT P6SM SCT150=

USA.gov is the U.S. government's official web portal to all federal, state and local government web resources and services.